createdAt,value
2023-01-13T00:01:00.333Z,99164.94
2023-01-13T00:03:26.877Z,99162.47
2023-01-13T00:05:53.453Z,99162.75
2023-01-13T00:08:19.978Z,99141.91
2023-01-13T00:10:48.477Z,99157.97
2023-01-13T00:13:15.018Z,99148.91
2023-01-13T00:15:41.638Z,99141.59
2023-01-13T00:18:08.279Z,99145.19
2023-01-13T00:20:35.030Z,99160.88
2023-01-13T00:23:01.595Z,99144.69
2023-01-13T00:25:28.119Z,99140.28
2023-01-13T00:27:54.662Z,99141.66
2023-01-13T00:30:21.268Z,99144.97
2023-01-13T00:32:47.806Z,99149.63
2023-01-13T00:35:14.362Z,99146.88
2023-01-13T00:37:41.248Z,99146.09
2023-01-13T00:40:08.585Z,99145.03
2023-01-13T00:42:53.910Z,99148.34
2023-01-13T00:45:20.507Z,99150.78
2023-01-13T00:47:47.054Z,99136.44
2023-01-13T00:50:13.591Z,99145.28
2023-01-13T00:52:42.269Z,99143.38
2023-01-13T00:55:09.169Z,99139.03
2023-01-13T00:57:35.749Z,99143.84
2023-01-13T01:00:02.600Z,99147.38
2023-01-13T01:02:29.182Z,99158.81
2023-01-13T01:04:55.771Z,99142.25
2023-01-13T01:07:22.508Z,99150.66
2023-01-13T01:09:49.764Z,99136.06
2023-01-13T01:12:16.327Z,99139.44
2023-01-13T01:14:42.860Z,99140.06
2023-01-13T01:17:09.488Z,99143.75
2023-01-13T01:19:38.824Z,99131.88
2023-01-13T01:22:05.393Z,99133.66
2023-01-13T01:24:31.945Z,99143.47
2023-01-13T01:26:58.496Z,99138.31
2023-01-13T01:29:25.064Z,99141.09
2023-01-13T01:31:51.655Z,99137.66
2023-01-13T01:34:18.253Z,99119.22
2023-01-13T01:36:44.804Z,99137.75
2023-01-13T01:39:11.564Z,99117.88
2023-01-13T01:41:38.254Z,99118.19
2023-01-13T01:44:27.634Z,99128.13
2023-01-13T01:46:55.821Z,99132.38
2023-01-13T01:49:33.796Z,99121.94
2023-01-13T01:52:06.589Z,99116.16
2023-01-13T01:54:54.719Z,99127.06
2023-01-13T01:57:27.261Z,99117.13
2023-01-13T01:59:54.101Z,99122.34
2023-01-13T02:02:20.821Z,99117.13
2023-01-13T02:04:51.804Z,99114.81
2023-01-13T02:07:22.720Z,99105.88
2023-01-13T02:09:49.843Z,99105.16
2023-01-13T02:12:35.213Z,99109.28
2023-01-13T02:15:09.200Z,99096.19
2023-01-13T02:17:53.291Z,99099.34
2023-01-13T02:20:38.487Z,99105.44
2023-01-13T02:23:44.843Z,99102.97
2023-01-13T02:26:57.516Z,99097.34
2023-01-13T02:29:55.328Z,99100.00
2023-01-13T02:32:29.979Z,99080.81
2023-01-13T02:35:12.514Z,99093.41
2023-01-13T02:37:42.289Z,99091.78
2023-01-13T02:40:17.592Z,99076.31
2023-01-13T02:43:20.420Z,99093.41
2023-01-13T02:45:58.917Z,99067.47
2023-01-13T02:48:29.662Z,99072.75
2023-01-13T02:51:02.593Z,99051.19
2023-01-13T02:53:34.717Z,99060.69
2023-01-13T02:56:04.897Z,99063.34
2023-01-13T02:58:33.266Z,99062.81
2023-01-13T03:00:59.702Z,99066.19
2023-01-13T03:03:26.190Z,99066.53
2023-01-13T03:06:00.565Z,99063.97
2023-01-13T03:08:39.628Z,99063.66
2023-01-13T03:11:09.094Z,99080.28
2023-01-13T03:14:02.694Z,99087.94
2023-01-13T03:16:40.723Z,99083.66
2023-01-13T03:19:30.860Z,99079.38
2023-01-13T03:22:11.914Z,99085.13
2023-01-13T03:24:50.113Z,99082.22
2023-01-13T03:27:34.262Z,99075.28
2023-01-13T03:30:16.420Z,99074.63
2023-01-13T03:32:46.696Z,99067.31
2023-01-13T03:35:23.136Z,99062.81
2023-01-13T03:38:00.303Z,99066.50
2023-01-13T03:40:32.634Z,99057.44
2023-01-13T03:43:42.914Z,99055.69
2023-01-13T03:46:18.388Z,99063.66
2023-01-13T03:48:46.268Z,99064.94
2023-01-13T03:51:17.915Z,99060.47
2023-01-13T03:53:50.846Z,99062.56
2023-01-13T03:56:40.259Z,99060.00
2023-01-13T03:59:11.607Z,99054.22
2023-01-13T04:01:53.134Z,99062.38
2023-01-13T04:04:28.932Z,99066.94
2023-01-13T04:06:58.082Z,99068.59
2023-01-13T04:09:36.663Z,99066.50
2023-01-13T04:12:15.225Z,99069.31
2023-01-13T04:14:42.779Z,99066.66
2023-01-13T04:17:09.480Z,99060.91
2023-01-13T04:19:35.918Z,99066.50
2023-01-13T04:22:02.300Z,99066.59
2023-01-13T04:24:28.725Z,99059.66
2023-01-13T04:26:56.485Z,99061.56
2023-01-13T04:29:23.166Z,99060.91
2023-01-13T04:31:49.642Z,99054.97
2023-01-13T04:34:16.288Z,99055.66
2023-01-13T04:36:43.727Z,99065.16
2023-01-13T04:39:10.102Z,99062.78
2023-01-13T04:41:55.118Z,99056.78
2023-01-13T04:44:21.485Z,99063.28
2023-01-13T04:46:47.843Z,99053.69
2023-01-13T04:49:14.345Z,99051.56
2023-01-13T04:51:40.713Z,99055.44
2023-01-13T04:54:07.151Z,99060.19
2023-01-13T04:56:33.538Z,99061.38
2023-01-13T04:58:59.933Z,99049.47
2023-01-13T05:01:26.406Z,99060.00
2023-01-13T05:03:52.876Z,99053.50
2023-01-13T05:06:19.399Z,99043.25
2023-01-13T05:08:45.784Z,99054.97
2023-01-13T05:11:30.868Z,99043.53
2023-01-13T05:14:15.734Z,99046.00
2023-01-13T05:17:00.171Z,99058.22
2023-01-13T05:19:28.435Z,99050.88
2023-01-13T05:22:13.367Z,99049.25
2023-01-13T05:24:59.263Z,99037.97
2023-01-13T05:27:26.046Z,99038.97
2023-01-13T05:29:52.747Z,99045.56
2023-01-13T05:32:19.129Z,99051.94
2023-01-13T05:34:45.483Z,99036.63
2023-01-13T05:37:13.220Z,99049.16
2023-01-13T05:39:58.728Z,99049.25
2023-01-13T05:42:43.672Z,99052.09
2023-01-13T05:45:11.437Z,99055.81
2023-01-13T05:47:37.863Z,99061.13
2023-01-13T05:50:04.648Z,99056.53
2023-01-13T05:52:31.033Z,99052.78
2023-01-13T05:54:57.491Z,99056.19
2023-01-13T05:57:23.872Z,99049.88
2023-01-13T05:59:50.342Z,99050.19
2023-01-13T06:02:16.691Z,99045.56
2023-01-13T06:04:43.176Z,99047.13
2023-01-13T06:07:09.574Z,99038.53
2023-01-13T06:09:35.993Z,99045.84
2023-01-13T06:12:02.350Z,99047.94
2023-01-13T06:14:39.937Z,99046.50
2023-01-13T06:17:10.931Z,99043.94
2023-01-13T06:19:37.712Z,99050.06
2023-01-13T06:22:25.227Z,99053.00
2023-01-13T06:24:54.052Z,99043.28
2023-01-13T06:27:22.488Z,99041.63
2023-01-13T06:29:49.575Z,99055.25
2023-01-13T06:32:19.637Z,99049.25
2023-01-13T06:34:50.166Z,99052.78
2023-01-13T06:37:19.941Z,99055.47
2023-01-13T06:39:46.518Z,99055.81
2023-01-13T06:42:31.536Z,99053.25
2023-01-13T06:44:57.965Z,99052.91
2023-01-13T06:47:24.483Z,99054.88
2023-01-13T06:49:50.915Z,99051.22
2023-01-13T06:52:17.309Z,99053.25
2023-01-13T06:54:43.746Z,99052.19
2023-01-13T06:57:10.335Z,99056.06
2023-01-13T06:59:36.734Z,99058.66
2023-01-13T07:02:03.347Z,99056.19
2023-01-13T07:04:29.879Z,99065.81
2023-01-13T07:06:56.277Z,99060.66
2023-01-13T07:09:22.806Z,99067.44
2023-01-13T07:11:49.236Z,99070.66
2023-01-13T07:14:34.431Z,99076.31
2023-01-13T07:17:00.891Z,99079.44
2023-01-13T07:19:27.296Z,99090.41
2023-01-13T07:21:53.718Z,99084.44
2023-01-13T07:24:20.579Z,99081.09
2023-01-13T07:26:46.953Z,99087.34
2023-01-13T07:29:13.887Z,99091.03
2023-01-13T07:31:40.409Z,99090.69
2023-01-13T07:34:07.385Z,99085.72
2023-01-13T07:36:34.141Z,99091.69
2023-01-13T07:39:00.786Z,99080.00
2023-01-13T07:41:46.034Z,99066.09
2023-01-13T07:44:12.516Z,99070.38
2023-01-13T07:46:39.435Z,99077.75
2023-01-13T07:49:08.266Z,99077.41
2023-01-13T07:51:39.125Z,99075.06
2023-01-13T07:54:06.145Z,99077.69
2023-01-13T07:56:33.179Z,99075.25
2023-01-13T07:59:00.775Z,99081.53
2023-01-13T08:01:28.064Z,99089.78
2023-01-13T08:03:56.185Z,99085.28
2023-01-13T08:06:22.935Z,99084.19
2023-01-13T08:08:49.377Z,99072.59
2023-01-13T08:11:15.846Z,99074.22
2023-01-13T08:13:42.240Z,99076.53
2023-01-13T08:16:11.599Z,99073.13
2023-01-13T08:18:38.717Z,99074.22
2023-01-13T08:21:13.678Z,99073.69
2023-01-13T08:23:41.826Z,99073.94
2023-01-13T08:26:14.503Z,99079.91
2023-01-13T08:28:41.042Z,99069.00
2023-01-13T08:31:10.628Z,99072.31
2023-01-13T08:33:37.643Z,99076.16
2023-01-13T08:36:06.085Z,99076.88
2023-01-13T08:38:33.140Z,99067.91
2023-01-13T08:40:59.519Z,99073.22
2023-01-13T08:43:26.051Z,99071.94
2023-01-13T08:45:57.570Z,99067.53
2023-01-13T08:48:24.137Z,99072.84
2023-01-13T08:50:50.812Z,99068.75
2023-01-13T08:53:17.222Z,99062.94
2023-01-13T08:55:43.822Z,99059.47
2023-01-13T08:58:15.589Z,99062.78
2023-01-13T09:00:43.819Z,99067.06
2023-01-13T09:03:10.460Z,99066.97
2023-01-13T09:05:36.976Z,99078.88
2023-01-13T09:08:03.719Z,99086.09
2023-01-13T09:10:30.288Z,99089.69
2023-01-13T09:13:11.927Z,99096.94
2023-01-13T09:15:40.168Z,99102.69
2023-01-13T09:18:06.678Z,99097.94
2023-01-13T09:20:33.366Z,99119.06
2023-01-13T09:22:59.937Z,99141.19
2023-01-13T09:25:26.333Z,99238.16
2023-01-13T09:27:52.694Z,99220.94
2023-01-13T09:30:19.066Z,99212.19
2023-01-13T09:32:45.469Z,99254.94
2023-01-13T09:35:11.919Z,99243.97
2023-01-13T09:37:40.638Z,99232.38
2023-01-13T09:40:18.442Z,99227.44
2023-01-13T09:43:20.000Z,99233.69
2023-01-13T09:46:41.550Z,99219.47
2023-01-13T09:49:20.821Z,99230.19
2023-01-13T09:51:55.891Z,99226.75
2023-01-13T09:54:32.279Z,99244.09
2023-01-13T09:56:59.333Z,99244.59
2023-01-13T09:59:34.574Z,99234.03
2023-01-13T10:02:22.570Z,99244.78
2023-01-13T10:05:21.936Z,99240.34
2023-01-13T10:07:55.621Z,99241.00
2023-01-13T10:10:34.836Z,99234.22
2023-01-13T10:13:17.201Z,99236.03
2023-01-13T10:15:52.661Z,99240.03
2023-01-13T10:18:28.109Z,99235.03
2023-01-13T10:21:08.311Z,99238.84
2023-01-13T10:24:07.988Z,99235.72
2023-01-13T10:27:00.320Z,99232.41
2023-01-13T10:29:28.726Z,99225.81
2023-01-13T10:31:56.718Z,99213.56
2023-01-13T10:34:25.121Z,99214.88
2023-01-13T10:37:11.259Z,99192.72
2023-01-13T10:39:43.026Z,99199.69
2023-01-13T10:42:15.280Z,99182.97
2023-01-13T10:44:56.683Z,99186.78
2023-01-13T10:47:35.878Z,99185.66
2023-01-13T10:50:05.647Z,99187.44
2023-01-13T10:52:37.822Z,99180.16
2023-01-13T10:55:23.991Z,99172.88
2023-01-13T10:57:50.529Z,99175.88
2023-01-13T11:00:32.931Z,99169.09
2023-01-13T11:03:27.928Z,99172.72
2023-01-13T11:05:57.457Z,99161.13
2023-01-13T11:08:25.732Z,99167.25
2023-01-13T11:10:53.505Z,99181.97
2023-01-13T11:13:31.205Z,99191.72
2023-01-13T11:16:10.910Z,99192.06
2023-01-13T11:19:02.777Z,99189.78
2023-01-13T11:21:46.288Z,99200.38
2023-01-13T11:24:20.659Z,99200.38
2023-01-13T11:26:59.035Z,99188.44
2023-01-13T11:30:00.161Z,99188.44
2023-01-13T11:32:30.977Z,99194.06
2023-01-13T11:35:03.092Z,99206.28
2023-01-13T11:37:32.877Z,99192.38
2023-01-13T11:40:18.571Z,99206.59
2023-01-13T11:43:10.268Z,99209.22
2023-01-13T11:45:42.766Z,99213.19
2023-01-13T11:48:15.139Z,99212.25
2023-01-13T11:50:51.091Z,99215.88
2023-01-13T11:53:45.524Z,99211.56
2023-01-13T11:56:43.935Z,99214.84
2023-01-13T11:59:48.032Z,99224.13
2023-01-13T12:02:28.852Z,99205.59
2023-01-13T12:05:29.289Z,99176.81
2023-01-13T12:08:02.796Z,99135.09
2023-01-13T12:10:57.063Z,99194.34
2023-01-13T12:13:29.646Z,99187.69
2023-01-13T12:16:11.270Z,99190.69
2023-01-13T12:19:01.857Z,99190.03
2023-01-13T12:21:33.988Z,99198.63
2023-01-13T12:24:18.276Z,99196.84
2023-01-13T12:27:01.768Z,99201.28
2023-01-13T12:29:37.500Z,99201.25
2023-01-13T12:32:05.996Z,99196.63
2023-01-13T12:34:53.942Z,99185.72
2023-01-13T12:37:31.777Z,99191.00
2023-01-13T12:40:18.774Z,99185.72
2023-01-13T12:43:17.786Z,99181.22
2023-01-13T12:45:44.453Z,99193.50
2023-01-13T12:48:45.589Z,99203.75
2023-01-13T12:51:26.032Z,99199.63
2023-01-13T12:53:54.559Z,99191.47
2023-01-13T12:56:35.410Z,99192.66
2023-01-13T12:59:32.466Z,99192.50
2023-01-13T13:02:10.994Z,99202.72
2023-01-13T13:04:57.254Z,99202.91
2023-01-13T13:07:45.348Z,99194.66
2023-01-13T13:10:18.423Z,99197.94
2023-01-13T13:13:03.151Z,99211.72
2023-01-13T13:15:33.885Z,99197.47
2023-01-13T13:18:27.404Z,99200.28
2023-01-13T13:21:11.249Z,99203.09
2023-01-13T13:23:51.211Z,99198.28
2023-01-13T13:26:25.021Z,99207.56
2023-01-13T13:29:12.888Z,99205.88
2023-01-13T13:32:09.013Z,99217.84
2023-01-13T13:34:44.060Z,99214.84
2023-01-13T13:37:30.185Z,99216.00
2023-01-13T13:40:15.879Z,99215.34
2023-01-13T13:43:13.410Z,99212.53
2023-01-13T13:46:09.308Z,99206.06
2023-01-13T13:48:35.756Z,99217.16
2023-01-13T13:51:20.418Z,99216.00
2023-01-13T13:53:47.745Z,99215.19
2023-01-13T13:56:21.548Z,99217.50
2023-01-13T13:58:49.380Z,99225.75
2023-01-13T14:01:37.656Z,99222.78
2023-01-13T14:04:21.729Z,99208.19
2023-01-13T14:06:54.552Z,99204.91
2023-01-13T14:09:22.249Z,99191.31
2023-01-13T14:12:00.813Z,99198.13
2023-01-13T14:14:28.223Z,99207.03
2023-01-13T14:16:58.548Z,99213.50
2023-01-13T14:19:35.916Z,99207.81
2023-01-13T14:22:04.814Z,99216.78
2023-01-13T14:24:32.689Z,99226.69
2023-01-13T14:27:16.133Z,99224.06
2023-01-13T14:29:43.122Z,99229.00
2023-01-13T14:32:15.341Z,99237.66
2023-01-13T14:34:41.729Z,99234.34
2023-01-13T14:37:35.021Z,99245.25
2023-01-13T14:40:01.708Z,99243.28
2023-01-13T14:42:29.696Z,99252.56
2023-01-13T14:44:56.436Z,99261.84
2023-01-13T14:47:27.909Z,99260.81
2023-01-13T14:50:03.103Z,99266.31
2023-01-13T14:52:32.809Z,99280.06
2023-01-13T14:55:09.123Z,99277.06
2023-01-13T14:57:41.394Z,99283.19
2023-01-13T15:00:13.964Z,99275.94
2023-01-13T15:02:48.950Z,99275.59
2023-01-13T15:05:28.953Z,99279.41
2023-01-13T15:08:12.306Z,99282.22
2023-01-13T15:11:00.519Z,99285.50
2023-01-13T15:13:40.705Z,99294.13
2023-01-13T15:16:16.917Z,99347.25
2023-01-13T15:18:43.418Z,99345.09
2023-01-13T15:21:10.443Z,99375.78
2023-01-13T15:23:39.837Z,99351.72
2023-01-13T15:26:18.387Z,99337.09
2023-01-13T15:28:44.782Z,99325.97
2023-01-13T15:31:11.324Z,99334.69
2023-01-13T15:33:38.853Z,99358.66
2023-01-13T15:36:11.562Z,99348.63
2023-01-13T15:38:39.157Z,99345.94
2023-01-13T15:41:05.676Z,99344.75
2023-01-13T15:43:50.388Z,99337.94
2023-01-13T15:46:38.743Z,99346.59
2023-01-13T15:49:19.903Z,99342.69
2023-01-13T15:51:47.654Z,99352.47
2023-01-13T15:54:14.446Z,99334.69
2023-01-13T15:56:42.060Z,99340.56
2023-01-13T15:59:24.572Z,99352.38
2023-01-13T16:01:51.121Z,99354.72
2023-01-13T16:04:17.609Z,99363.38
2023-01-13T16:06:44.636Z,99364.50
2023-01-13T16:09:14.604Z,99352.00
2023-01-13T16:11:41.014Z,99344.47
2023-01-13T16:14:07.384Z,99351.19
2023-01-13T16:16:33.845Z,99350.28
2023-01-13T16:19:00.259Z,99342.72
2023-01-13T16:21:26.650Z,99346.75
2023-01-13T16:23:53.061Z,99356.19
2023-01-13T16:26:22.388Z,99350.63
2023-01-13T16:28:51.242Z,99362.59
2023-01-13T16:31:22.156Z,99359.44
2023-01-13T16:33:48.771Z,99354.94
2023-01-13T16:36:17.491Z,99354.97
2023-01-13T16:38:44.021Z,99353.56
2023-01-13T16:41:10.476Z,99360.56
2023-01-13T16:43:37.114Z,99357.53
2023-01-13T16:46:17.472Z,99360.47
2023-01-13T16:48:44.117Z,99357.31
2023-01-13T16:51:10.507Z,99357.44
2023-01-13T16:53:36.961Z,99356.25
2023-01-13T16:56:03.335Z,99349.75
2023-01-13T16:58:29.709Z,99359.41
2023-01-13T17:00:56.194Z,99371.16
2023-01-13T17:03:22.650Z,99373.63
2023-01-13T17:05:49.051Z,99383.19
2023-01-13T17:08:20.466Z,99391.91
2023-01-13T17:10:47.622Z,99410.22
2023-01-13T17:13:16.397Z,99402.66
2023-01-13T17:15:43.417Z,99412.25
2023-01-13T17:18:11.444Z,99416.25
2023-01-13T17:20:37.800Z,99426.94
2023-01-13T17:23:04.270Z,99420.16
2023-01-13T17:25:30.671Z,99416.56
2023-01-13T17:27:59.831Z,99415.63
2023-01-13T17:30:26.312Z,99427.56
2023-01-13T17:32:52.807Z,99417.16
2023-01-13T17:35:24.455Z,99413.84
2023-01-13T17:37:52.383Z,99418.97
2023-01-13T17:40:18.853Z,99421.00
2023-01-13T17:42:45.216Z,99426.72
2023-01-13T17:45:12.424Z,99422.16
2023-01-13T17:47:39.114Z,99426.59
2023-01-13T17:50:06.054Z,99427.94
2023-01-13T17:52:34.523Z,99443.06
2023-01-13T17:55:01.059Z,99443.16
2023-01-13T17:57:27.621Z,99450.34
2023-01-13T17:59:54.027Z,99456.28
2023-01-13T18:02:20.486Z,99451.59
2023-01-13T18:04:46.921Z,99451.38
2023-01-13T18:07:13.443Z,99462.31
2023-01-13T18:09:39.844Z,99485.91
2023-01-13T18:12:06.505Z,99482.16
2023-01-13T18:14:32.922Z,99496.13
2023-01-13T18:16:59.373Z,99492.72
2023-01-13T18:19:44.438Z,99497.94
2023-01-13T18:22:32.215Z,99490.91
2023-01-13T18:25:17.341Z,99500.44
2023-01-13T18:27:43.869Z,99495.47
2023-01-13T18:30:12.250Z,99500.13
2023-01-13T18:32:38.714Z,99490.91
2023-01-13T18:35:10.147Z,99498.47
2023-01-13T18:37:39.954Z,99495.59
2023-01-13T18:40:07.866Z,99495.06
2023-01-13T18:42:53.990Z,99498.91
2023-01-13T18:45:26.376Z,99508.88
2023-01-13T18:47:54.695Z,99501.13
2023-01-13T18:50:22.349Z,99494.47
2023-01-13T18:52:48.997Z,99500.34
2023-01-13T18:55:15.700Z,99488.81
2023-01-13T18:57:42.068Z,99479.59
2023-01-13T19:00:11.632Z,99501.13
2023-01-13T19:02:38.118Z,99489.22
2023-01-13T19:05:05.111Z,99503.44
2023-01-13T19:07:34.546Z,99518.50
2023-01-13T19:10:00.960Z,99500.94
2023-01-13T19:12:27.980Z,99509.06
2023-01-13T19:14:55.526Z,99511.41
2023-01-13T19:17:23.737Z,99520.00
2023-01-13T19:19:53.477Z,99506.72
2023-01-13T19:22:23.227Z,99511.41
2023-01-13T19:24:50.543Z,99508.41
2023-01-13T19:27:18.558Z,99525.97
2023-01-13T19:29:52.335Z,99545.91
2023-01-13T19:32:20.360Z,99526.13
2023-01-13T19:34:47.801Z,99524.91
2023-01-13T19:37:14.179Z,99546.66
2023-01-13T19:39:40.835Z,99535.66
2023-01-13T19:42:26.031Z,99538.44
2023-01-13T19:45:11.133Z,99549.00
2023-01-13T19:47:38.784Z,99544.56
2023-01-13T19:50:09.153Z,99555.97
2023-01-13T19:52:35.556Z,99553.75
2023-01-13T19:55:02.161Z,99550.16
2023-01-13T19:57:29.023Z,99563.81
2023-01-13T19:59:55.370Z,99546.34
2023-01-13T20:02:28.886Z,99554.59
2023-01-13T20:04:57.216Z,99553.25
2023-01-13T20:07:26.558Z,99571.06
2023-01-13T20:09:53.812Z,99559.13
2023-01-13T20:12:21.119Z,99576.34
2023-01-13T20:14:48.031Z,99577.41
2023-01-13T20:17:17.103Z,99600.81
2023-01-13T20:19:43.758Z,99590.22
2023-01-13T20:22:10.948Z,99615.00
2023-01-13T20:24:37.513Z,99629.19
2023-01-13T20:27:04.966Z,99632.66
2023-01-13T20:29:31.892Z,99632.66
2023-01-13T20:31:58.335Z,99622.63
2023-01-13T20:34:25.796Z,99624.19
2023-01-13T20:36:52.780Z,99634.47
2023-01-13T20:39:27.143Z,99631.47
2023-01-13T20:42:13.275Z,99628.81
2023-01-13T20:44:40.255Z,99631.75
2023-01-13T20:47:06.892Z,99647.31
2023-01-13T20:49:36.051Z,99626.19
2023-01-13T20:52:09.061Z,99630.31
2023-01-13T20:54:36.937Z,99635.34
2023-01-13T20:57:05.041Z,99632.81
2023-01-13T20:59:31.497Z,99628.81
2023-01-13T21:01:58.237Z,99632.72
2023-01-13T21:04:24.673Z,99633.03
2023-01-13T21:06:51.438Z,99642.63
2023-01-13T21:09:18.127Z,99629.41
2023-01-13T21:12:03.315Z,99667.66
2023-01-13T21:14:48.065Z,99644.72
2023-01-13T21:17:34.978Z,99640.13
2023-01-13T21:20:04.083Z,99646.22
2023-01-13T21:22:31.076Z,99647.81
2023-01-13T21:24:58.426Z,99657.09
2023-01-13T21:27:25.427Z,99667.13
2023-01-13T21:29:51.847Z,99666.00
2023-01-13T21:32:18.260Z,99676.97
2023-01-13T21:34:44.793Z,99673.72
2023-01-13T21:37:11.186Z,99673.34
2023-01-13T21:39:38.721Z,99681.94
2023-01-13T21:42:23.695Z,99682.31
2023-01-13T21:45:08.605Z,99694.63
2023-01-13T21:47:50.234Z,99701.91
2023-01-13T21:50:19.673Z,99702.56
2023-01-13T21:52:47.987Z,99697.56
2023-01-13T21:55:25.229Z,99706.78
2023-01-13T21:58:14.795Z,99718.72
2023-01-13T22:00:43.257Z,99717.66
2023-01-13T22:03:12.004Z,99710.41
2023-01-13T22:05:38.834Z,99711.78
2023-01-13T22:08:06.051Z,99719.88
2023-01-13T22:10:32.531Z,99715.50
2023-01-13T22:13:21.249Z,99719.94
2023-01-13T22:15:47.933Z,99724.41
2023-01-13T22:18:14.311Z,99721.38
2023-01-13T22:20:42.055Z,99723.31
2023-01-13T22:23:08.558Z,99724.44
2023-01-13T22:25:34.934Z,99727.81
2023-01-13T22:28:05.913Z,99727.53
2023-01-13T22:30:33.132Z,99733.38
2023-01-13T22:32:59.882Z,99725.22
2023-01-13T22:35:26.306Z,99731.84
2023-01-13T22:37:52.679Z,99741.16
2023-01-13T22:40:19.046Z,99741.72
2023-01-13T22:42:45.628Z,99745.31
2023-01-13T22:45:14.303Z,99746.19
2023-01-13T22:47:41.153Z,99744.00
2023-01-13T22:50:08.990Z,99744.41
2023-01-13T22:52:35.662Z,99734.25
2023-01-13T22:55:02.112Z,99741.47
2023-01-13T22:57:46.725Z,99746.47
2023-01-13T23:00:14.851Z,99752.66
2023-01-13T23:02:41.330Z,99749.63
2023-01-13T23:05:08.121Z,99752.28
2023-01-13T23:07:35.462Z,99751.28
2023-01-13T23:10:02.483Z,99755.69
2023-01-13T23:12:28.910Z,99762.91
2023-01-13T23:14:55.286Z,99755.81
2023-01-13T23:17:21.667Z,99760.56
2023-01-13T23:19:48.015Z,99780.25
2023-01-13T23:22:14.399Z,99770.97
2023-01-13T23:24:40.848Z,99771.94
2023-01-13T23:27:07.301Z,99764.91
2023-01-13T23:29:33.682Z,99766.56
2023-01-13T23:32:00.080Z,99762.25
2023-01-13T23:34:26.515Z,99758.91
2023-01-13T23:36:52.888Z,99771.97
2023-01-13T23:39:19.310Z,99783.69
2023-01-13T23:41:45.758Z,99785.91
2023-01-13T23:44:12.202Z,99771.59
2023-01-13T23:46:38.599Z,99781.75
2023-01-13T23:49:05.017Z,99781.44
2023-01-13T23:51:31.941Z,99781.19
2023-01-13T23:53:59.335Z,99787.06
2023-01-13T23:56:28.868Z,99781.78
2023-01-13T23:58:56.057Z,99783.13
